createdAt,value
2022-11-03T00:01:49.389Z,5.30
2022-11-03T00:06:55.238Z,4.40
2022-11-03T00:11:59.083Z,4.20
2022-11-03T00:17:02.688Z,4.00
2022-11-03T00:22:06.177Z,4.30
2022-11-03T00:27:09.627Z,4.30
2022-11-03T00:32:13.683Z,4.20
2022-11-03T00:37:17.384Z,4.40
2022-11-03T00:42:20.806Z,4.00
2022-11-03T00:47:27.088Z,3.90
2022-11-03T00:52:30.814Z,4.60
2022-11-03T00:57:34.369Z,4.00
2022-11-03T01:02:38.011Z,4.50
2022-11-03T01:07:41.684Z,4.50
2022-11-03T01:12:45.305Z,4.20
2022-11-03T01:17:48.830Z,3.90
2022-11-03T01:22:52.449Z,4.50
2022-11-03T01:27:57.772Z,3.80
2022-11-03T01:33:14.205Z,4.60
2022-11-03T01:38:21.433Z,4.00
2022-11-03T01:43:26.494Z,3.60
2022-11-03T01:48:31.343Z,4.00
2022-11-03T01:53:36.091Z,4.40
2022-11-03T01:58:42.335Z,4.10
2022-11-03T02:03:52.146Z,4.20
2022-11-03T02:09:07.995Z,3.90
2022-11-03T02:14:14.229Z,4.10
2022-11-03T02:20:01.559Z,3.90
2022-11-03T02:25:28.634Z,3.90
2022-11-03T02:30:41.899Z,4.00
2022-11-03T02:36:17.123Z,3.70
2022-11-03T02:41:28.139Z,3.50
2022-11-03T02:46:34.444Z,3.30
2022-11-03T02:51:47.700Z,3.70
2022-11-03T02:57:28.123Z,3.80
2022-11-03T03:02:44.730Z,4.00
2022-11-03T03:07:53.465Z,4.00
2022-11-03T03:13:01.189Z,3.70
2022-11-03T03:18:23.631Z,4.00
2022-11-03T03:23:32.472Z,3.50
2022-11-03T03:28:44.088Z,3.20
2022-11-03T03:33:53.240Z,3.30
2022-11-03T03:39:04.334Z,3.20
2022-11-03T03:44:12.758Z,3.10
2022-11-03T03:49:19.960Z,3.70
2022-11-03T03:54:23.587Z,3.10
2022-11-03T03:59:31.037Z,3.10
2022-11-03T04:04:35.450Z,3.00
2022-11-03T04:09:39.867Z,3.40
2022-11-03T04:15:05.096Z,3.40
2022-11-03T04:20:33.704Z,3.30
2022-11-03T04:25:39.374Z,3.50
2022-11-03T04:30:43.593Z,3.40
2022-11-03T04:35:48.546Z,3.60
2022-11-03T04:40:58.977Z,3.80
2022-11-03T04:46:02.953Z,3.00
2022-11-03T04:51:16.348Z,3.30
2022-11-03T04:56:25.517Z,4.00
2022-11-03T05:01:30.144Z,3.50
2022-11-03T05:06:33.718Z,3.50
2022-11-03T05:11:42.571Z,3.90
2022-11-03T05:16:47.533Z,3.60
2022-11-03T05:21:52.567Z,3.20
2022-11-03T05:26:58.652Z,3.30
2022-11-03T05:32:02.270Z,3.50
2022-11-03T05:37:08.861Z,3.10
2022-11-03T05:42:33.669Z,3.60
2022-11-03T05:47:39.853Z,3.30
2022-11-03T05:52:45.743Z,3.60
2022-11-03T05:57:49.248Z,2.90
2022-11-03T06:02:53.415Z,3.70
2022-11-03T06:08:01.094Z,3.20
2022-11-03T06:13:28.054Z,3.40
2022-11-03T06:18:36.139Z,3.40
2022-11-03T06:23:42.344Z,3.20
2022-11-03T06:28:48.185Z,3.40
2022-11-03T06:33:53.186Z,3.60
2022-11-03T06:39:21.575Z,3.10
2022-11-03T06:44:31.016Z,3.10
2022-11-03T06:49:39.569Z,2.80
2022-11-03T06:54:43.086Z,3.20
2022-11-03T06:59:47.129Z,3.40
2022-11-03T07:04:50.663Z,3.10
2022-11-03T07:09:55.286Z,3.10
2022-11-03T07:14:59.385Z,3.20
2022-11-03T07:20:03.249Z,3.50
2022-11-03T07:25:13.910Z,3.40
2022-11-03T07:30:20.657Z,2.80
2022-11-03T07:36:00.447Z,3.20
2022-11-03T07:41:00.237Z,3.40
2022-11-03T07:46:05.415Z,3.40
2022-11-03T07:51:33.680Z,3.20
2022-11-03T07:56:45.360Z,3.90
2022-11-03T08:01:52.229Z,3.30
2022-11-03T08:06:58.780Z,4.30
2022-11-03T08:12:03.843Z,3.70
2022-11-03T08:17:08.264Z,4.00
2022-11-03T08:22:13.373Z,3.20
2022-11-03T08:27:20.889Z,4.00
2022-11-03T08:32:25.370Z,3.10
2022-11-03T08:37:28.981Z,3.80
2022-11-03T08:42:32.416Z,3.50
2022-11-03T08:47:41.976Z,3.80
2022-11-03T08:52:45.684Z,3.90
2022-11-03T08:57:49.203Z,3.30
2022-11-03T09:02:53.339Z,3.40
2022-11-03T09:13:45.610Z,3.60
2022-11-03T09:18:50.389Z,3.80
2022-11-03T09:23:54.700Z,3.50
2022-11-03T09:29:00.064Z,3.40
2022-11-03T09:34:04.877Z,4.40
2022-11-03T09:39:17.759Z,4.40
2022-11-03T09:44:22.292Z,3.40
2022-11-03T09:49:28.371Z,3.80
2022-11-03T09:54:31.892Z,4.00
2022-11-03T09:59:37.707Z,3.10
2022-11-03T10:04:45.637Z,3.70
2022-11-03T10:09:55.654Z,4.40
2022-11-03T10:14:59.861Z,4.30
2022-11-03T10:20:06.482Z,4.70
2022-11-03T10:25:38.369Z,3.40
2022-11-03T10:31:11.893Z,3.50
2022-11-03T10:36:23.446Z,4.00
2022-11-03T10:41:45.163Z,3.60
2022-11-03T10:47:07.213Z,3.90
2022-11-03T10:52:21.784Z,3.50
2022-11-03T10:57:27.302Z,3.80
2022-11-03T11:02:36.766Z,3.20
2022-11-03T11:07:42.128Z,3.70
2022-11-03T11:13:04.860Z,3.40
2022-11-03T11:18:09.412Z,3.10
2022-11-03T11:23:28.106Z,3.70
2022-11-03T11:28:31.697Z,2.70
2022-11-03T11:33:35.529Z,2.90
2022-11-03T11:39:25.805Z,3.10
2022-11-03T11:44:48.188Z,3.40
2022-11-03T11:50:07.071Z,4.10
2022-11-03T11:55:19.784Z,3.30
2022-11-03T12:00:26.672Z,3.20
2022-11-03T12:05:36.030Z,3.30
2022-11-03T12:10:54.075Z,3.10
2022-11-03T12:15:58.011Z,2.80
2022-11-03T12:21:06.329Z,3.20
2022-11-03T12:26:27.931Z,3.30
2022-11-03T12:31:36.948Z,3.00
2022-11-03T12:36:40.934Z,3.30
2022-11-03T12:41:47.145Z,2.80
2022-11-03T12:46:50.945Z,2.90
2022-11-03T12:51:56.417Z,2.80
2022-11-03T12:57:01.392Z,2.80
2022-11-03T13:02:08.359Z,2.40
2022-11-03T13:07:13.629Z,2.90
2022-11-03T13:12:34.238Z,2.40
2022-11-03T13:23:00.714Z,2.30
2022-11-03T13:28:06.897Z,3.10
2022-11-03T13:33:17.387Z,2.70
2022-11-03T13:44:18.310Z,3.00
2022-11-03T14:01:27.766Z,2.80
2022-11-03T14:12:36.616Z,2.40
2022-11-03T14:17:47.674Z,3.20
2022-11-03T14:22:52.622Z,3.10
2022-11-03T14:28:41.346Z,2.90
2022-11-03T14:34:18.535Z,2.80
2022-11-03T14:40:00.471Z,2.80
2022-11-03T14:45:42.690Z,9.30
2022-11-03T14:51:17.262Z,5.80
2022-11-03T14:57:04.731Z,5.40
2022-11-03T15:02:19.228Z,5.60
2022-11-03T15:07:35.410Z,5.10
2022-11-03T15:19:09.327Z,5.60
2022-11-03T15:30:20.969Z,4.50
2022-11-03T15:35:41.600Z,4.30
2022-11-03T15:41:25.581Z,4.10
2022-11-03T15:46:54.486Z,3.90
2022-11-03T15:52:02.197Z,4.00
2022-11-03T15:57:11.456Z,4.00
2022-11-03T16:02:48.144Z,3.60
2022-11-03T16:08:14.179Z,3.40
2022-11-03T16:13:21.393Z,3.90
2022-11-03T16:18:29.083Z,4.00
2022-11-03T16:23:33.248Z,3.70
2022-11-03T16:28:41.315Z,3.80
2022-11-03T16:33:45.585Z,3.70
2022-11-03T16:38:55.456Z,3.60
2022-11-03T16:49:37.219Z,4.00
2022-11-03T16:55:14.526Z,4.30
2022-11-03T17:00:48.637Z,3.80
2022-11-03T17:06:03.267Z,4.20
2022-11-03T17:11:07.095Z,4.20
2022-11-03T17:16:22.455Z,4.00
2022-11-03T17:21:33.388Z,3.80
2022-11-03T17:27:05.232Z,3.60
2022-11-03T17:32:19.381Z,3.70
2022-11-03T17:37:43.705Z,4.00
2022-11-03T17:42:48.547Z,3.70
2022-11-03T17:48:03.118Z,3.90
2022-11-03T17:53:20.126Z,4.70
2022-11-03T17:58:34.075Z,3.70
2022-11-03T18:03:38.961Z,4.00
2022-11-03T18:08:44.798Z,4.00
2022-11-03T18:13:51.528Z,4.50
2022-11-03T18:18:58.437Z,4.70
2022-11-03T18:24:19.895Z,5.60
2022-11-03T18:29:26.137Z,5.10
2022-11-03T18:34:31.926Z,4.00
2022-11-03T18:39:44.576Z,3.90
2022-11-03T18:44:52.303Z,4.20
2022-11-03T18:49:56.305Z,3.60
2022-11-03T18:55:00.441Z,4.10
2022-11-03T19:00:07.341Z,4.20
2022-11-03T19:05:27.044Z,4.10
2022-11-03T19:10:30.944Z,4.60
2022-11-03T19:15:35.908Z,4.00
2022-11-03T19:20:43.175Z,4.30
2022-11-03T19:26:05.655Z,4.50
2022-11-03T19:31:25.309Z,5.10
2022-11-03T19:36:37.890Z,6.20
2022-11-03T19:42:04.622Z,5.00
2022-11-03T19:53:47.007Z,5.10
2022-11-03T19:58:52.812Z,4.70
2022-11-03T20:03:57.042Z,4.40
2022-11-03T20:09:07.831Z,5.20
2022-11-03T20:14:18.309Z,4.10
2022-11-03T20:19:28.686Z,5.70
2022-11-03T20:24:33.197Z,4.70
2022-11-03T20:29:39.785Z,5.10
2022-11-03T20:34:46.208Z,4.80
2022-11-03T20:39:49.834Z,4.80
2022-11-03T20:44:53.559Z,4.80
2022-11-03T20:49:58.218Z,5.50
2022-11-03T20:55:02.440Z,5.90
2022-11-03T21:00:17.134Z,5.30
2022-11-03T21:05:26.070Z,4.80
2022-11-03T21:10:30.094Z,4.90
2022-11-03T21:16:18.593Z,4.70
2022-11-03T21:21:32.713Z,5.00
2022-11-03T21:26:52.047Z,5.20
2022-11-03T21:32:14.428Z,6.00
2022-11-03T21:37:22.271Z,5.60
2022-11-03T21:42:48.909Z,6.10
2022-11-03T21:48:14.033Z,4.90
2022-11-03T21:53:18.457Z,5.30
2022-11-03T21:58:23.615Z,4.60
2022-11-03T22:03:32.985Z,5.30
2022-11-03T22:08:40.176Z,5.40
2022-11-03T22:13:44.632Z,4.90
2022-11-03T22:18:48.417Z,5.20
2022-11-03T22:24:12.924Z,5.40
2022-11-03T22:29:40.115Z,5.30
2022-11-03T22:35:11.195Z,4.80
2022-11-03T22:40:42.383Z,5.40
2022-11-03T22:45:57.985Z,5.00
2022-11-03T22:51:04.202Z,5.20
2022-11-03T22:56:08.834Z,5.20
2022-11-03T23:01:18.878Z,4.60
2022-11-03T23:06:29.196Z,4.90
2022-11-03T23:11:35.682Z,4.70
2022-11-03T23:16:45.435Z,4.50
2022-11-03T23:21:53.602Z,4.30
2022-11-03T23:27:01.310Z,5.10
2022-11-03T23:32:07.264Z,4.30
2022-11-03T23:37:14.676Z,4.00
2022-11-03T23:42:32.648Z,5.00
2022-11-03T23:47:55.885Z,4.00
2022-11-03T23:53:01.446Z,4.70
2022-11-03T23:58:24.827Z,4.70
